createdAt,value
2022-10-19T00:01:08.408Z,6.83
2022-10-19T00:04:10.003Z,6.78
2022-10-19T00:07:11.594Z,6.50
2022-10-19T00:10:13.188Z,6.40
2022-10-19T00:13:14.887Z,6.30
2022-10-19T00:16:17.881Z,6.33
2022-10-19T00:19:25.522Z,6.15
2022-10-19T00:22:27.059Z,6.43
2022-10-19T00:25:28.719Z,6.53
2022-10-19T00:28:30.657Z,6.07
2022-10-19T00:31:32.531Z,6.10
2022-10-19T00:34:34.100Z,5.82
2022-10-19T00:37:35.687Z,6.05
2022-10-19T00:40:38.491Z,6.15
2022-10-19T00:43:58.872Z,6.10
2022-10-19T00:47:03.782Z,5.85
2022-10-19T00:50:06.028Z,6.55
2022-10-19T00:53:07.649Z,6.35
2022-10-19T00:56:13.947Z,6.80
2022-10-19T00:59:18.689Z,6.85
2022-10-19T01:02:20.290Z,6.20
2022-10-19T01:05:22.459Z,6.25
2022-10-19T01:08:24.106Z,6.38
2022-10-19T01:11:38.529Z,6.33
2022-10-19T01:15:12.088Z,6.25
2022-10-19T01:18:36.473Z,5.45
2022-10-19T01:21:48.554Z,6.10
2022-10-19T01:25:10.770Z,6.20
2022-10-19T01:28:49.395Z,6.15
2022-10-19T01:32:27.638Z,6.57
2022-10-19T01:35:40.977Z,6.32
2022-10-19T01:38:47.716Z,5.88
2022-10-19T01:42:01.074Z,6.82
2022-10-19T01:45:17.381Z,6.78
2022-10-19T01:48:24.257Z,6.63
2022-10-19T01:51:32.587Z,6.60
2022-10-19T01:54:42.687Z,8.25
2022-10-19T01:57:48.300Z,6.70
2022-10-19T02:00:53.206Z,6.93
2022-10-19T02:03:56.473Z,6.88
2022-10-19T02:06:59.226Z,7.20
2022-10-19T02:10:01.226Z,6.93
2022-10-19T02:13:04.531Z,6.53
2022-10-19T02:16:11.190Z,6.83
2022-10-19T02:19:15.756Z,6.75
2022-10-19T02:22:17.640Z,6.72
2022-10-19T02:25:19.808Z,7.20
2022-10-19T02:28:22.952Z,7.20
2022-10-19T02:31:25.345Z,7.05
2022-10-19T02:34:27.387Z,7.50
2022-10-19T02:37:29.175Z,7.13
2022-10-19T02:40:36.132Z,7.10
2022-10-19T02:43:40.853Z,6.70
2022-10-19T02:46:45.516Z,7.47
2022-10-19T02:49:49.111Z,7.68
2022-10-19T02:52:50.838Z,7.30
2022-10-19T02:55:52.594Z,7.88
2022-10-19T02:58:54.323Z,7.80
2022-10-19T03:01:58.590Z,7.63
2022-10-19T03:05:00.213Z,7.47
2022-10-19T03:08:01.743Z,7.50
2022-10-19T03:11:03.719Z,7.07
2022-10-19T03:14:05.398Z,7.53
2022-10-19T03:17:07.204Z,7.20
2022-10-19T03:20:10.210Z,7.20
2022-10-19T03:23:11.752Z,7.45
2022-10-19T03:26:15.772Z,7.43
2022-10-19T03:29:17.313Z,7.45
2022-10-19T03:32:19.001Z,7.28
2022-10-19T03:35:20.625Z,7.40
2022-10-19T03:38:22.212Z,7.50
2022-10-19T03:41:27.662Z,7.40
2022-10-19T03:44:29.200Z,7.75
2022-10-19T03:47:30.833Z,7.10
2022-10-19T03:50:32.434Z,7.35
2022-10-19T03:53:34.416Z,7.50
2022-10-19T03:56:36.536Z,7.38
2022-10-19T03:59:38.196Z,7.30
2022-10-19T04:02:39.794Z,7.45
2022-10-19T04:05:41.337Z,7.40
2022-10-19T04:08:44.262Z,7.25
2022-10-19T04:11:46.219Z,7.38
2022-10-19T04:14:56.893Z,7.97
2022-10-19T04:17:59.339Z,8.13
2022-10-19T04:21:04.453Z,7.72
2022-10-19T04:24:13.561Z,7.43
2022-10-19T04:27:15.128Z,7.28
2022-10-19T04:30:16.763Z,7.45
2022-10-19T04:33:18.287Z,7.13
2022-10-19T04:36:20.320Z,7.43
2022-10-19T04:39:21.860Z,7.20
2022-10-19T04:42:23.409Z,7.20
2022-10-19T04:45:24.913Z,7.40
2022-10-19T04:48:26.431Z,7.30
2022-10-19T04:51:28.259Z,7.43
2022-10-19T04:54:29.810Z,7.43
2022-10-19T04:57:31.682Z,7.72
2022-10-19T05:00:34.118Z,7.90
2022-10-19T05:03:35.751Z,7.73
2022-10-19T05:06:37.412Z,7.47
2022-10-19T05:09:40.446Z,7.18
2022-10-19T05:12:42.027Z,7.70
2022-10-19T05:15:43.693Z,7.65
2022-10-19T05:18:50.362Z,8.00
2022-10-19T05:21:52.081Z,7.93
2022-10-19T05:24:57.334Z,8.60
2022-10-19T05:27:59.838Z,7.90
2022-10-19T05:31:13.357Z,7.67
2022-10-19T05:34:14.916Z,8.10
2022-10-19T05:37:17.369Z,7.93
2022-10-19T05:40:28.636Z,8.35
2022-10-19T05:43:32.196Z,8.37
2022-10-19T05:46:36.814Z,7.95
2022-10-19T05:49:41.379Z,9.10
2022-10-19T05:52:42.942Z,8.70
2022-10-19T05:55:47.102Z,7.75
2022-10-19T05:58:49.479Z,8.35
2022-10-19T06:01:51.103Z,8.38
2022-10-19T06:04:53.175Z,8.68
2022-10-19T06:08:00.531Z,8.43
2022-10-19T06:11:17.091Z,9.20
2022-10-19T06:14:18.986Z,8.40
2022-10-19T06:17:24.921Z,9.18
2022-10-19T06:20:30.363Z,8.75
2022-10-19T06:23:33.415Z,8.93
2022-10-19T06:26:35.799Z,9.32
2022-10-19T06:29:37.510Z,9.98
2022-10-19T06:32:39.269Z,10.07
2022-10-19T06:35:43.002Z,9.68
2022-10-19T06:38:44.835Z,9.23
2022-10-19T06:41:46.385Z,9.30
2022-10-19T06:44:59.807Z,9.75
2022-10-19T06:48:03.664Z,10.00
2022-10-19T06:51:08.494Z,9.33
2022-10-19T06:54:10.242Z,9.82
2022-10-19T06:57:11.928Z,10.13
2022-10-19T07:00:14.088Z,10.18
2022-10-19T07:03:15.603Z,10.20
2022-10-19T07:06:17.398Z,10.07
2022-10-19T07:09:19.718Z,10.27
2022-10-19T07:12:21.292Z,10.10
2022-10-19T07:15:24.897Z,9.70
2022-10-19T07:18:29.619Z,9.82
2022-10-19T07:21:31.363Z,10.05
2022-10-19T07:24:33.876Z,10.15
2022-10-19T07:27:37.864Z,10.10
2022-10-19T07:30:39.580Z,9.43
2022-10-19T07:33:41.303Z,9.38
2022-10-19T07:36:56.047Z,9.43
2022-10-19T07:39:57.607Z,9.10
2022-10-19T07:42:59.186Z,9.90
2022-10-19T07:46:14.664Z,10.13
2022-10-19T07:49:19.960Z,9.63
2022-10-19T07:52:21.485Z,9.25
2022-10-19T07:55:23.063Z,8.82
2022-10-19T07:58:24.681Z,9.30
2022-10-19T08:01:34.571Z,9.23
2022-10-19T08:08:00.248Z,9.70
2022-10-19T08:11:13.957Z,9.25
2022-10-19T08:14:15.629Z,9.98
2022-10-19T08:17:17.671Z,9.80
2022-10-19T08:20:21.808Z,10.05
2022-10-19T08:23:23.799Z,9.48
2022-10-19T08:26:29.056Z,10.05
2022-10-19T08:29:31.750Z,9.40
2022-10-19T08:32:33.929Z,9.33
2022-10-19T08:35:39.687Z,9.50
2022-10-19T08:38:45.644Z,9.23
2022-10-19T08:42:01.277Z,9.40
2022-10-19T08:45:18.816Z,8.90
2022-10-19T08:48:35.177Z,9.10
2022-10-19T08:51:41.073Z,8.40
2022-10-19T08:55:02.795Z,8.35
2022-10-19T08:58:25.259Z,8.25
2022-10-19T09:01:51.963Z,8.17
2022-10-19T09:05:03.538Z,8.23
2022-10-19T09:08:05.297Z,7.95
2022-10-19T09:11:10.372Z,8.35
2022-10-19T09:14:25.804Z,7.97
2022-10-19T09:17:28.510Z,7.80
2022-10-19T09:20:37.931Z,7.95
2022-10-19T09:23:39.725Z,7.43
2022-10-19T09:26:52.188Z,7.22
2022-10-19T09:29:58.880Z,7.80
2022-10-19T09:33:02.526Z,7.93
2022-10-19T09:36:07.588Z,8.20
2022-10-19T09:39:13.562Z,7.93
2022-10-19T09:42:33.295Z,7.70
2022-10-19T09:45:38.452Z,8.13
2022-10-19T09:48:47.674Z,7.40
2022-10-19T09:51:52.564Z,7.50
2022-10-19T09:55:17.698Z,7.47
2022-10-19T09:58:20.722Z,6.80
2022-10-19T10:01:41.941Z,7.03
2022-10-19T10:04:57.496Z,6.90
2022-10-19T10:07:59.359Z,7.18
2022-10-19T10:11:15.577Z,7.97
2022-10-19T10:14:21.556Z,8.07
2022-10-19T10:17:30.602Z,7.53
2022-10-19T10:20:32.726Z,7.97
2022-10-19T10:23:36.593Z,7.18
2022-10-19T10:26:44.456Z,7.97
2022-10-19T10:33:09.434Z,7.10
2022-10-19T10:36:27.334Z,7.23
2022-10-19T10:39:29.507Z,7.18
2022-10-19T10:42:37.176Z,7.40
2022-10-19T10:45:47.135Z,7.40
2022-10-19T10:49:16.245Z,6.75
2022-10-19T10:52:19.625Z,7.40
2022-10-19T10:55:21.515Z,6.97
2022-10-19T10:58:44.676Z,7.20
2022-10-19T11:01:59.184Z,7.00
2022-10-19T11:05:07.577Z,7.30
2022-10-19T11:08:12.118Z,7.07
2022-10-19T11:11:28.504Z,7.32
2022-10-19T11:14:44.337Z,6.70
2022-10-19T11:17:58.407Z,7.00
2022-10-19T11:21:27.921Z,6.80
2022-10-19T11:24:50.902Z,6.60
2022-10-19T11:28:31.063Z,6.70
2022-10-19T11:31:32.562Z,6.40
2022-10-19T11:34:56.219Z,6.40
2022-10-19T11:38:19.581Z,6.50
2022-10-19T11:41:49.620Z,6.40
2022-10-19T11:45:21.988Z,6.22
2022-10-19T11:49:08.037Z,5.38
2022-10-19T11:52:21.712Z,4.28
2022-10-19T11:55:37.695Z,4.43
2022-10-19T11:58:39.280Z,4.43
2022-10-19T12:01:49.988Z,5.35
2022-10-19T12:04:55.870Z,5.80
2022-10-19T12:12:10.079Z,5.78
2022-10-19T12:15:11.578Z,5.03
2022-10-19T12:18:22.494Z,4.43
2022-10-19T12:21:29.325Z,4.57
2022-10-19T12:24:33.865Z,4.32
2022-10-19T12:27:40.740Z,4.20
2022-10-19T12:30:42.438Z,4.23
2022-10-19T12:33:53.255Z,3.72
2022-10-19T12:37:15.516Z,4.38
2022-10-19T12:40:49.305Z,5.20
2022-10-19T12:44:01.706Z,5.00
2022-10-19T12:47:18.940Z,4.57
2022-10-19T12:50:49.295Z,5.07
2022-10-19T12:53:51.031Z,4.78
2022-10-19T12:56:55.523Z,5.07
2022-10-19T13:00:21.197Z,4.68
2022-10-19T13:03:25.180Z,4.57
2022-10-19T13:06:33.952Z,4.43
2022-10-19T13:09:39.378Z,4.65
2022-10-19T13:12:46.802Z,4.18
2022-10-19T13:15:52.164Z,4.43
2022-10-19T13:19:21.166Z,4.30
2022-10-19T13:22:27.692Z,4.00
2022-10-19T13:25:39.726Z,4.10
2022-10-19T13:28:57.539Z,4.20
2022-10-19T13:32:37.806Z,4.53
2022-10-19T13:35:41.042Z,4.27
2022-10-19T13:39:02.865Z,4.63
2022-10-19T13:42:04.675Z,4.35
2022-10-19T13:45:06.813Z,4.60
2022-10-19T13:48:23.612Z,4.60
2022-10-19T13:51:37.166Z,4.70
2022-10-19T13:54:57.842Z,5.07
2022-10-19T13:58:36.688Z,5.10
2022-10-19T14:01:51.770Z,5.40
2022-10-19T14:05:12.186Z,5.75
2022-10-19T14:08:38.268Z,5.50
2022-10-19T14:11:45.764Z,5.82
2022-10-19T14:14:47.388Z,5.72
2022-10-19T14:17:49.197Z,5.00
2022-10-19T14:21:01.635Z,4.50
2022-10-19T14:24:18.815Z,4.50
2022-10-19T14:27:24.703Z,4.30
2022-10-19T14:30:32.788Z,4.85
2022-10-19T14:33:38.060Z,3.70
2022-10-19T14:36:45.127Z,2.97
2022-10-19T14:40:00.338Z,3.20
2022-10-19T14:43:02.053Z,2.95
2022-10-19T14:46:06.735Z,2.95
2022-10-19T14:49:11.700Z,2.90
2022-10-19T14:52:20.141Z,2.53
2022-10-19T14:55:22.711Z,2.93
2022-10-19T14:58:27.792Z,2.63
2022-10-19T15:01:30.229Z,2.90
2022-10-19T15:04:38.592Z,2.70
2022-10-19T15:07:43.064Z,2.92
2022-10-19T15:10:47.310Z,2.93
2022-10-19T15:13:51.826Z,2.90
2022-10-19T15:16:55.060Z,2.85
2022-10-19T15:20:01.123Z,3.10
2022-10-19T15:23:25.911Z,3.67
2022-10-19T15:26:31.108Z,3.57
2022-10-19T15:29:32.659Z,3.42
2022-10-19T15:32:38.389Z,3.60
2022-10-19T15:35:44.040Z,3.72
2022-10-19T15:39:24.861Z,3.70
2022-10-19T15:42:38.252Z,4.10
2022-10-19T15:45:39.950Z,3.78
2022-10-19T15:48:41.453Z,4.15
2022-10-19T15:51:45.154Z,4.50
2022-10-19T15:54:57.973Z,4.10
2022-10-19T15:58:00.282Z,3.90
2022-10-19T16:01:01.975Z,3.70
2022-10-19T16:04:03.699Z,3.80
2022-10-19T16:07:05.422Z,4.07
2022-10-19T16:10:08.525Z,3.65
2022-10-19T16:13:10.155Z,3.70
2022-10-19T16:16:21.108Z,3.75
2022-10-19T16:24:50.007Z,4.22
2022-10-19T16:27:51.753Z,5.68
2022-10-19T16:30:54.657Z,8.37
2022-10-19T16:33:56.318Z,6.90
2022-10-19T16:37:01.403Z,6.05
2022-10-19T16:54:57.624Z,6.32
2022-10-19T16:57:59.513Z,10.35
2022-10-19T17:01:07.571Z,10.60
2022-10-19T17:04:09.481Z,8.70
2022-10-19T17:07:12.905Z,7.47
2022-10-19T17:10:15.401Z,6.18
2022-10-19T17:13:30.707Z,6.10
2022-10-19T17:25:37.918Z,5.60
2022-10-19T17:28:40.445Z,5.45
2022-10-19T17:31:42.699Z,5.55
2022-10-19T17:34:44.324Z,5.90
2022-10-19T17:37:45.927Z,8.10
2022-10-19T17:40:47.711Z,7.13
2022-10-19T17:43:53.486Z,5.60
2022-10-19T17:47:20.147Z,12.52
2022-10-19T17:56:04.184Z,5.13
2022-10-19T17:59:08.897Z,5.67
2022-10-19T18:02:44.090Z,6.15
2022-10-19T18:06:00.021Z,6.10
2022-10-19T18:09:03.862Z,5.97
2022-10-19T18:12:07.542Z,5.63
2022-10-19T18:15:12.555Z,5.40
2022-10-19T18:18:14.329Z,6.05
2022-10-19T18:21:19.032Z,7.47
2022-10-19T18:24:21.532Z,8.77
2022-10-19T18:27:40.569Z,7.72
2022-10-19T18:30:45.142Z,6.83
2022-10-19T18:33:48.281Z,6.22
2022-10-19T18:36:50.446Z,6.20
2022-10-19T18:39:52.008Z,5.95
2022-10-19T18:42:53.554Z,5.93
2022-10-19T18:45:58.139Z,6.93
2022-10-19T18:58:05.590Z,5.97
2022-10-19T19:01:16.062Z,7.30
2022-10-19T19:04:18.141Z,6.93
2022-10-19T19:07:19.752Z,6.90
2022-10-19T19:10:21.741Z,6.78
2022-10-19T19:13:24.082Z,6.30
2022-10-19T19:16:27.526Z,6.55
2022-10-19T19:19:29.863Z,6.10
2022-10-19T19:22:38.903Z,6.45
2022-10-19T19:25:41.027Z,6.88
2022-10-19T19:34:09.809Z,6.75
2022-10-19T19:40:47.951Z,6.65
2022-10-19T19:43:49.547Z,6.90
2022-10-19T19:46:51.085Z,6.60
2022-10-19T19:49:52.648Z,7.13
2022-10-19T19:52:54.210Z,7.53
2022-10-19T19:55:58.040Z,8.20
2022-10-19T19:59:00.813Z,8.68
2022-10-19T20:07:05.544Z,8.15
2022-10-19T20:13:44.686Z,8.30
2022-10-19T20:16:46.436Z,8.73
2022-10-19T20:19:48.085Z,7.93
2022-10-19T20:22:49.986Z,7.65
2022-10-19T20:25:53.542Z,7.55
2022-10-19T20:28:55.752Z,7.38
2022-10-19T20:31:57.544Z,7.50
2022-10-19T20:34:59.136Z,7.33
2022-10-19T20:38:00.738Z,6.97
2022-10-19T20:41:07.047Z,7.43
2022-10-19T20:44:09.843Z,7.03
2022-10-19T20:47:14.973Z,7.70
2022-10-19T20:50:19.296Z,6.68
2022-10-19T20:53:31.800Z,6.90
2022-10-19T20:56:36.307Z,6.80
2022-10-19T20:59:39.545Z,6.72
2022-10-19T21:02:44.743Z,6.70
2022-10-19T21:05:46.442Z,7.00
2022-10-19T21:08:48.303Z,7.00
2022-10-19T21:11:53.315Z,6.68
2022-10-19T21:14:54.895Z,7.00
2022-10-19T21:17:56.476Z,6.97
2022-10-19T21:20:58.131Z,6.90
2022-10-19T21:24:04.475Z,7.10
2022-10-19T21:27:08.994Z,6.82
2022-10-19T21:30:12.464Z,7.28
2022-10-19T21:33:14.112Z,7.33
2022-10-19T21:36:15.772Z,6.88
2022-10-19T21:39:18.014Z,7.13
2022-10-19T21:42:19.635Z,6.95
2022-10-19T21:45:36.275Z,6.50
2022-10-19T21:48:38.348Z,6.82
2022-10-19T21:51:45.282Z,6.35
2022-10-19T21:54:47.153Z,6.13
2022-10-19T21:57:56.231Z,6.50
2022-10-19T22:01:04.920Z,6.90
2022-10-19T22:04:08.789Z,7.03
2022-10-19T22:07:13.384Z,6.55
2022-10-19T22:10:22.998Z,7.03
2022-10-19T22:13:47.391Z,6.85
2022-10-19T22:16:50.196Z,6.60
2022-10-19T22:19:51.906Z,7.15
2022-10-19T22:22:55.904Z,7.13
2022-10-19T22:25:59.788Z,7.13
2022-10-19T22:29:02.207Z,7.15
2022-10-19T22:32:07.063Z,6.60
2022-10-19T22:35:08.831Z,6.83
2022-10-19T22:38:13.054Z,6.82
2022-10-19T22:41:17.118Z,7.03
2022-10-19T22:44:18.833Z,6.85
2022-10-19T22:47:20.546Z,6.70
2022-10-19T22:50:24.059Z,6.90
2022-10-19T22:53:25.645Z,7.03
2022-10-19T22:56:30.074Z,6.50
2022-10-19T22:59:36.200Z,6.57
2022-10-19T23:02:38.090Z,6.47
2022-10-19T23:05:45.126Z,6.72
2022-10-19T23:08:47.334Z,6.47
2022-10-19T23:11:49.067Z,6.90
2022-10-19T23:14:52.573Z,6.88
2022-10-19T23:17:54.674Z,7.18
2022-10-19T23:21:01.260Z,6.87
2022-10-19T23:24:02.976Z,6.97
2022-10-19T23:27:07.517Z,7.45
2022-10-19T23:30:09.496Z,7.20
2022-10-19T23:33:11.162Z,7.05
2022-10-19T23:36:19.964Z,7.40
2022-10-19T23:39:21.575Z,7.03
2022-10-19T23:42:23.168Z,7.00
2022-10-19T23:45:24.750Z,6.63
2022-10-19T23:48:26.386Z,7.50
2022-10-19T23:51:28.031Z,6.97
2022-10-19T23:54:29.670Z,6.85
2022-10-19T23:57:31.309Z,7.22
